Latest Weather Observations for Tidbinbilla

IDN60801

Issued at 11:02 am EDT Thursday 21 November 2019 (issued every 10 minutes, with the page automatically refreshed every 10 minutes)

About weather observations | Map of weather stations | Latest weather observations for NSW | Other Formats
Station Details ID: 250069 Name: TIDBINBILLA (PCS) Lat: -35.46 Lon: 148.94 Height: 883.0 m

Portable automatic weather stations (PAWS) are operated by other organisations, such as Fire and Emergency Services, and are included here by agreement. Portable stations may be deployed to a location for a short period and their location may be subject to change without notice. Wind observations from these stations are provided from heights of either three (3) or ten (10) metres above ground level (AGL).

Data from the previous 72 hours. | See also: Recent months for locations in New South Wales
Date/Time
EDT
Temp
°C
App
Temp
°C
Dew
Point
°C
Rel
Hum
%
Delta-T
°C
Wind Press
QNH
hPa
Press
MSL
hPa
Rain since
9am
mm
Dir  Spd
km/h
Gust
km/h
Spd
kts
Gust
kts
21/10:50am 30.7 25.3 1.1 15 15.1 NNE 19 28 10 15 1017.6 - 0.0
21/10:40am 29.9 25.4 2.0 16 14.4 NNE 15 22 8 12 1017.8 - 0.0
21/10:30am - - 3.2 - - NNE 13 17 7 9 1017.9 - 0.0
21/10:20am - - 3.6 - - N 9 15 5 8 1017.9 - 0.0
21/10:10am - - 2.3 - - N 9 11 5 6 1018.1 - 0.0
21/10:00am - - 2.8 - - N 7 7 4 4 1018.2 - 0.0
21/09:50am - - 1.7 - - N 6 9 3 5 1018.3 - 0.0
21/09:40am - - 4.7 - - N 4 6 2 3 1018.4 - 0.0
21/09:30am - - 5.6 - - N 4 6 2 3 1018.5 - 0.0
21/09:20am - - 5.2 - - NNE 4 6 2 3 1018.6 - 0.0
21/09:10am - - 8.6 - - NNE 4 6 2 3 1018.7 - 0.0
21/09:00am - - 9.2 - - NNE 6 7 3 4 1018.7 - 0.0
21/08:50am - - 8.4 - - NE 2 6 1 3 1018.7 - 0.0
21/08:40am - - 9.0 - - NNE 4 6 2 3 1018.8 - 0.0
21/08:30am - - 9.0 - - NNE 2 2 1 1 1018.8 - 0.0
21/08:20am - - 9.3 - - CALM 0 4 0 2 1018.8 - 0.0
21/08:10am - - 8.3 - - CALM 0 4 0 2 1018.7 - 0.0
21/08:00am - - 7.7 - - CALM 0 2 0 1 1018.8 - 0.0
21/07:50am - - 7.4 - - CALM 0 2 0 1 1018.8 - 0.0
21/07:40am - - 3.7 - - S 2 4 1 2 1018.7 - 0.0
21/07:30am - - 5.4 - - CALM 0 0 0 0 1018.6 - 0.0
21/07:20am - - 6.3 - - CALM 0 4 0 2 1018.5 - 0.0
21/07:10am - - 4.7 - - SSW 4 4 2 2 1018.4 - 0.0
21/07:00am - - 5.9 - - S 2 4 1 2 1018.4 - 0.0
21/06:50am - - 5.7 - - CALM 0 2 0 1 1018.5 - 0.0
21/06:40am - - 7.1 - - CALM 0 2 0 1 1018.5 - 0.0
21/06:30am - - 6.3 - - NE 2 2 1 1 1018.5 - 0.0
21/06:20am - - 7.1 - - NE 2 6 1 3 1018.4 - 0.0
21/06:10am - - 6.2 - - CALM 0 4 0 2 1018.3 - 0.0
21/06:00am - - 6.9 - - S 4 6 2 3 1018.4 - 0.0
21/05:50am - - 7.4 - - CALM 0 2 0 1 1018.4 - 0.0
21/05:40am - - 7.7 - - NNE 2 4 1 2 1018.4 - 0.0
21/05:30am - - 7.2 - - SSW 2 4 1 2 1018.2 - 0.0
21/05:20am - - 7.5 - - ENE 2 4 1 2 1018.2 - 0.0
21/05:10am - - 7.6 - - NW 2 4 1 2 1018.2 - 0.0
21/05:00am - - 7.4 - - ESE 2 6 1 3 1018.0 - 0.0
21/04:30am 16.9 15.3 8.0 55 4.7 SSW 6 6 3 3 1018.1 - 0.0
21/04:20am 16.4 14.9 8.6 60 4.2 S 6 6 3 3 1018.2 - 0.0
21/04:10am 16.1 14.6 8.6 61 4.0 SSW 6 6 3 3 1018.3 - 0.0
21/04:00am 15.9 14.5 8.7 62 3.9 S 6 6 3 3 1018.2 - 0.0
21/03:50am 16.2 15.6 8.8 61 4.0 S 2 4 1 2 1018.3 - 0.0
21/03:40am 16.9 15.9 8.8 59 4.4 ENE 4 7 2 4 1018.4 - 0.0
21/03:30am 17.3 16.4 9.3 59 4.4 NNE 4 6 2 3 1018.3 - 0.0
21/03:20am 17.3 16.7 9.0 58 4.5 SSE 2 4 1 2 1018.3 - 0.0
21/03:10am 17.3 17.1 9.0 58 4.5 CALM 0 4 0 2 1018.3 - 0.0
21/03:00am 17.0 16.8 9.2 60 4.2 CALM 0 0 0 0 1018.4 - 0.0
21/02:50am 16.7 16.6 9.6 63 3.9 CALM 0 2 0 1 1018.5 - 0.0
21/02:40am 17.0 16.1 9.4 61 4.1 SW 4 6 2 3 1018.6 - 0.0
21/02:30am 16.6 15.8 9.8 64 3.7 S 4 6 2 3 1018.6 - 0.0
21/02:20am 16.9 16.1 9.5 61 4.0 S 4 6 2 3 1018.8 - 0.0
21/02:10am 16.8 16.3 9.3 61 4.1 S 2 4 1 2 1018.9 - 0.0
21/02:00am 16.6 15.7 9.4 62 3.9 SSW 4 6 2 3 1019.0 - 0.0
21/01:50am 16.7 16.2 9.5 62 3.9 S 2 4 1 2 1019.0 - 0.0
21/01:40am 16.8 16.4 9.8 63 3.8 WSW 2 4 1 2 1019.2 - 0.0
21/01:30am 17.1 17.1 9.9 62 4.0 CALM 0 2 0 1 1019.2 - 0.0
21/01:20am 17.2 17.2 9.7 61 4.1 CALM 0 0 0 0 1019.4 - 0.0
21/01:10am 17.2 17.2 9.8 61 4.1 CALM 0 2 0 1 1019.5 - 0.0
21/01:00am 17.3 17.3 9.9 62 4.1 CALM 0 2 0 1 1019.6 - 0.0
21/12:50am 17.4 17.0 9.9 61 4.1 SSW 2 4 1 2 1019.7 - 0.0
21/12:40am 17.5 17.2 10.0 61 4.1 S 2 4 1 2 1019.8 - 0.0
21/12:30am 17.5 17.5 9.8 60 4.2 CALM 0 0 0 0 1019.8 - 0.0
21/12:20am 17.5 17.2 10.0 61 4.1 S 2 4 1 2 1019.9 - 0.0
21/12:10am 17.9 17.6 10.1 60 4.3 NNE 2 4 1 2 1019.8 - 0.0
21/12:00am 18.2 17.5 9.9 58 4.6 NNE 4 4 2 2 1019.9 - 0.0
 
Date/Time
EDT
Temp
°C
App
Temp
°C
Dew
Point
°C
Rel
Hum
%
Delta-T
°C
Wind Press
QNH
hPa
Press
MSL
hPa
Rain since
9am
mm
Dir  Spd
km/h
Gust
km/h
Spd
kts
Gust
kts
20/11:50pm 18.3 17.9 9.9 58 4.7 NNW 2 4 1 2 1019.8 - 0.0
20/11:40pm 18.4 18.4 9.8 57 4.8 CALM 0 2 0 1 1019.9 - 0.0
20/11:30pm 18.6 18.2 9.9 57 4.8 NE 2 4 1 2 1019.9 - 0.0
20/11:20pm 18.5 18.5 9.9 57 4.8 CALM 0 4 0 2 1019.9 - 0.0
20/11:10pm 18.7 18.8 10.3 58 4.7 CALM 0 0 0 0 1019.9 - 0.0
20/11:00pm 19.3 19.0 10.0 55 5.2 ESE 2 6 1 3 1019.9 - 0.0
20/10:50pm 19.5 18.4 9.9 54 5.4 E 6 7 3 4 1020.0 - 0.0
20/10:40pm 19.6 18.5 9.9 53 5.4 E 6 7 3 4 1020.1 - 0.0
20/10:30pm 19.6 19.3 10.0 54 5.4 E 2 7 1 4 1020.0 - 0.0
20/10:20pm 20.0 19.2 9.7 51 5.7 NE 4 7 2 4 1020.0 - 0.0
20/10:10pm 20.2 19.1 9.8 51 5.8 E 6 7 3 4 1019.9 - 0.0
20/10:00pm 20.4 19.1 9.8 50 5.9 E 7 9 4 5 1019.9 - 0.0
20/09:50pm 20.7 19.0 9.7 49 6.2 E 9 11 5 6 1019.8 - 0.0
20/09:40pm 21.1 19.4 9.7 48 6.4 ENE 9 11 5 6 1019.8 - 0.0
20/09:30pm 21.4 19.3 9.6 47 6.6 ENE 11 13 6 7 1019.7 - 0.0
20/09:20pm 21.7 19.1 9.5 45 6.8 NE 13 15 7 8 1019.5 - 0.0
20/09:10pm 22.1 19.1 9.1 43 7.2 ENE 15 17 8 9 1019.4 - 0.0
20/09:00pm 22.5 18.6 8.5 40 7.7 NE 19 26 10 14 1019.0 - 0.0
20/08:50pm 23.2 19.4 5.8 32 9.2 NE 15 20 8 11 1018.7 - 0.0
20/08:40pm 23.9 21.0 2.5 24 10.7 NE 7 7 4 4 1018.5 - 0.0
20/08:30pm 24.2 21.3 1.7 23 11.1 ENE 6 7 3 4 1018.3 - 0.0
20/08:20pm 24.0 22.4 2.6 24 10.7 CALM 0 2 0 1 1018.2 - 0.0
20/08:10pm 24.2 22.3 2.9 25 10.8 S 2 4 1 2 1018.2 - 0.0
20/08:00pm 24.5 22.7 3.4 25 10.8 SSW 2 4 1 2 1018.1 - 0.0
20/07:50pm 24.9 23.5 3.3 24 11.0 CALM 0 2 0 1 1018.1 - 0.0
20/07:40pm 25.4 23.6 3.6 24 11.2 NW 2 6 1 3 1018.0 - 0.0
20/07:30pm 26.0 23.3 2.9 22 11.8 N 6 6 3 3 1017.9 - 0.0
20/07:20pm 26.4 23.5 2.7 21 12.1 N 7 13 4 7 1017.7 - 0.0
20/07:10pm 26.8 23.2 2.8 21 12.3 N 11 13 6 7 1017.6 - 0.0
20/07:00pm 26.6 22.6 2.6 21 12.2 NNE 13 19 7 10 1017.6 - 0.0
20/06:50pm 26.4 22.0 2.5 21 12.1 N 15 19 8 10 1017.4 - 0.0
20/06:40pm 26.5 22.6 3.2 22 12.0 N 13 15 7 8 1017.3 - 0.0
20/06:30pm 26.7 23.1 3.1 21 12.1 N 11 15 6 8 1017.1 - 0.0
20/06:20pm 27.7 23.1 3.6 21 12.6 N 17 19 9 10 1017.0 - 0.0
20/06:10pm 29.1 25.1 4.8 21 13.1 NNW 15 19 8 10 1017.0 - 0.0
20/06:00pm 28.3 23.7 3.9 21 12.9 NNE 17 24 9 13 1016.9 - 0.0
20/05:50pm 29.5 25.7 3.7 19 13.6 N 13 19 7 10 1016.8 - 0.0
20/05:40pm 29.6 26.7 4.5 20 13.5 NNW 9 17 5 9 1016.9 - 0.0
20/05:30pm 29.2 25.9 4.5 20 13.2 N 11 15 6 8 1016.8 - 0.0
20/05:20pm 29.4 26.1 4.7 21 13.3 N 11 19 6 10 1016.9 - 0.0
20/05:10pm 30.4 26.7 4.3 19 14.0 NNW 13 17 7 9 1016.8 - 0.0
20/05:00pm 29.9 26.2 4.7 20 13.6 N 13 19 7 10 1017.0 - 0.0
20/04:50pm 29.9 25.8 4.6 20 13.6 N 15 19 8 10 1016.9 - 0.0
20/04:40pm 29.3 25.7 5.0 21 13.1 N 13 17 7 9 1016.8 - 0.0
20/04:30pm 28.3 23.8 4.4 21 12.7 N 17 20 9 11 1016.7 - 0.0
20/04:20pm 27.8 24.2 5.0 23 12.2 NE 13 22 7 12 1016.6 - 0.0
20/04:10pm 27.7 24.6 5.6 24 11.9 NNE 11 19 6 10 1016.8 - 0.0
20/04:00pm 27.2 23.9 4.5 23 12.0 NE 11 15 6 8 1016.9 - 0.0
20/03:50pm 26.7 23.0 4.6 24 11.7 NNE 13 17 7 9 1016.9 - 0.0
20/03:40pm 26.7 22.6 4.4 24 11.7 NNE 15 20 8 11 1016.9 - 0.0
20/03:30pm 26.6 22.5 4.6 24 11.6 NE 15 22 8 12 1017.0 - 0.0
20/03:20pm 26.7 22.6 4.6 24 11.7 NE 15 17 8 9 1017.1 - 0.0
20/03:10pm 26.5 22.4 4.2 24 11.7 NE 15 20 8 11 1017.2 - 0.0
20/03:00pm 25.9 22.6 4.4 25 11.3 NNE 11 15 6 8 1017.3 - 0.0
20/02:50pm 26.1 23.0 5.4 26 11.1 NNE 11 13 6 7 1017.4 - 0.0
20/02:40pm 26.4 24.2 5.4 26 11.2 NNW 6 11 3 6 1017.5 - 0.0
20/02:30pm 26.1 23.8 5.6 27 11.0 NNE 7 13 4 7 1017.7 - 0.0
20/02:20pm 26.8 23.7 5.6 25 11.4 N 11 17 6 9 1017.7 - 0.0
20/02:10pm 26.0 23.9 6.7 29 10.5 NNE 7 15 4 8 1017.6 - 0.0
20/02:00pm 26.4 23.5 6.3 27 10.9 N 11 15 6 8 1017.8 - 0.0
20/01:50pm 26.3 23.2 5.7 26 11.1 N 11 19 6 10 1017.8 - 0.0
20/01:40pm 26.0 23.4 7.8 31 10.1 N 11 17 6 9 1017.9 - 0.0
20/01:30pm 26.0 23.3 7.2 30 10.3 NNW 11 20 6 11 1018.1 - 0.0
20/01:20pm 25.6 22.8 6.9 30 10.2 N 11 15 6 8 1018.2 - 0.0
20/01:10pm 25.3 22.4 6.3 29 10.3 N 11 15 6 8 1018.2 - 0.0
20/01:00pm 25.3 22.1 7.0 31 10.0 N 13 15 7 8 1018.4 - 0.0
20/12:50pm 24.9 21.9 6.2 30 10.1 NNW 11 15 6 8 1018.5 - 0.0
20/12:40pm 24.2 21.6 5.9 30 9.7 N 9 15 5 8 1018.6 - 0.0
20/12:30pm 23.2 19.9 6.5 34 8.9 N 13 19 7 10 1018.8 - 0.0
20/12:20pm 24.8 21.9 6.5 31 9.9 NNW 11 15 6 8 1018.7 - 0.0
20/12:10pm 24.8 22.3 6.4 30 9.9 NNW 9 15 5 8 1018.7 - 0.0
20/12:00pm 24.2 21.5 7.4 34 9.2 NNW 11 13 6 7 1018.9 - 0.0
20/11:50am 23.5 20.7 7.1 35 8.9 NNW 11 13 6 7 1018.9 - 0.0
20/11:40am 22.7 19.9 6.9 36 8.5 NNW 11 15 6 8 1018.9 - 0.0
20/11:30am 21.3 19.5 7.1 40 7.6 WNW 6 9 3 5 1019.0 - 0.0
20/11:20am 21.4 19.4 7.1 39 7.7 NNW 7 11 4 6 1019.1 - 0.0
20/11:10am 21.0 18.5 6.4 38 7.7 NW 9 13 5 7 1019.0 - 0.0
20/11:00am 20.7 18.4 5.9 38 7.7 N 7 11 4 6 1019.0 - 0.0
20/10:50am 20.1 17.5 6.3 40 7.2 N 9 13 5 7 1019.0 - 0.0
20/10:40am 19.9 17.3 5.9 40 7.3 NNW 9 13 5 7 1019.1 - 0.0
20/10:30am 19.6 16.9 5.7 40 7.2 NNW 9 15 5 8 1019.2 - 0.0
20/10:20am 18.8 16.6 6.2 43 6.5 NNW 7 11 4 6 1019.3 - 0.0
20/10:10am 18.0 15.6 6.9 48 5.8 NNW 9 11 5 6 1019.3 - 0.0
20/10:00am 18.0 16.0 7.2 49 5.7 NNW 7 11 4 6 1019.4 - 0.0
20/09:50am 17.7 15.6 6.5 48 5.8 NNW 7 9 4 5 1019.6 - 0.0
20/09:40am 16.6 14.4 6.4 51 5.2 N 7 13 4 7 1019.6 - 0.0
20/09:30am 16.1 14.2 6.7 53 4.8 N 6 7 3 4 1019.8 - 0.0
20/09:20am 15.2 13.6 6.5 56 4.4 NNW 4 7 2 4 1019.9 - 0.0
20/09:10am 14.9 13.3 6.4 57 4.3 NW 4 9 2 5 1020.1 - 0.0
20/09:00am 14.8 12.8 6.4 57 4.3 N 6 9 3 5 1020.1 - 0.0
20/08:50am 14.5 13.0 6.8 60 3.9 NNW 4 6 2 3 1020.0 - 0.0
20/08:40am 14.3 12.4 6.9 61 3.8 NNW 6 9 3 5 1020.1 - 0.0
20/08:30am 13.8 12.3 6.9 63 3.5 N 4 7 2 4 1020.0 - 0.0
20/08:20am 13.6 11.7 6.7 63 3.5 N 6 9 3 5 1019.9 - 0.0
20/08:10am 13.2 11.3 6.7 64 3.3 N 6 7 3 4 1020.0 - 0.0
20/08:00am 12.9 11.4 6.6 65 3.2 N 4 7 2 4 1020.0 - 0.0
20/07:50am 12.8 11.7 7.0 68 2.9 N 2 4 1 2 1019.9 - 0.0
20/07:40am 12.1 11.4 6.9 70 2.6 CALM 0 0 0 0 1019.8 - 0.0
20/07:30am 11.5 10.4 6.8 73 2.4 SSW 2 4 1 2 1019.7 - 0.0
20/07:20am 10.9 10.1 6.7 75 2.1 CALM 0 2 0 1 1019.6 - 0.0
20/07:10am 10.3 9.1 6.5 77 1.9 N 2 4 1 2 1019.4 - 0.0
20/07:00am 9.6 8.3 6.2 79 1.7 NE 2 4 1 2 1019.2 - 0.0
20/06:50am 8.5 6.8 5.8 83 1.3 NNE 4 4 2 2 1019.2 - 0.0
20/06:40am 7.8 6.1 5.8 87 1.0 NE 4 4 2 2 1019.2 - 0.0
20/06:30am 7.9 6.5 5.6 85 1.1 N 2 4 1 2 1019.0 - 0.0
20/06:20am 7.8 6.7 5.3 84 1.2 CALM 0 0 0 0 1019.0 - 0.0
20/06:10am 7.7 6.7 5.5 86 1.0 CALM 0 0 0 0 1018.9 - 0.0
20/06:00am 7.8 6.4 5.4 85 1.1 W 2 2 1 1 1018.9 - 0.0
20/05:50am 7.9 6.8 5.2 83 1.3 CALM 0 4 0 2 1018.6 - 0.0
20/05:40am 8.0 6.5 5.1 82 1.4 NNE 2 4 1 2 1018.5 - 0.0
20/05:30am 8.5 6.3 5.1 79 1.6 N 6 7 3 4 1018.2 - 0.0
20/05:20am 9.2 7.3 5.0 75 2.0 N 4 6 2 3 1018.2 - 0.0
20/05:10am 9.7 7.5 5.2 73 2.1 NNE 6 9 3 5 1018.0 - 0.0
20/05:00am 9.9 7.1 5.0 71 2.3 NE 9 9 5 5 1017.8 - 0.0
20/04:50am 10.5 8.5 4.6 67 2.8 NNE 4 7 2 4 1017.6 - 0.0
20/04:40am 10.8 9.6 4.6 65 2.9 CALM 0 2 0 1 1017.5 - 0.0
20/04:30am 11.1 9.9 4.7 64 3.1 CALM 0 2 0 1 1017.6 - 0.0
20/04:20am 11.4 10.2 4.6 63 3.2 CALM 0 2 0 1 1017.5 - 0.0
20/04:10am 11.6 10.0 4.5 61 3.4 S 2 6 1 3 1017.5 - 0.0
20/04:00am 11.7 9.3 4.3 60 3.5 S 6 7 3 4 1017.4 - 0.0
20/03:50am 11.6 9.2 4.5 61 3.4 S 6 7 3 4 1017.4 - 0.0
20/03:40am 11.7 9.8 4.7 62 3.4 SSW 4 6 2 3 1017.5 - 0.0
20/03:30am 11.6 9.3 4.7 62 3.3 S 6 6 3 3 1017.5 - 0.0
20/03:20am 11.5 9.6 4.7 63 3.3 S 4 4 2 2 1017.5 - 0.0
20/03:10am 11.6 9.7 4.9 63 3.2 S 4 4 2 2 1017.6 - 0.0
20/03:00am 11.5 9.6 5.0 64 3.1 S 4 6 2 3 1017.6 - 0.0
20/02:50am 11.5 9.6 5.0 64 3.1 S 4 4 2 2 1017.6 - 0.0
20/02:40am 11.6 9.7 4.8 63 3.3 SSW 4 4 2 2 1017.6 - 0.0
 
Date/Time
EDT
Temp
°C
App
Temp
°C
Dew
Point
°C
Rel
Hum
%
Delta-T
°C
Wind Press
QNH
hPa
Press
MSL
hPa
Rain since
9am
mm
Dir  Spd
km/h
Gust
km/h
Spd
kts
Gust
kts
19/02:10pm 27.5 19.1 -1.2 15 13.8 SW 33 41 18 22 1014.0 - 0.0
19/02:00pm 27.6 19.7 -1.3 15 13.8 SW 30 44 16 24 1014.2 - 0.0
19/01:50pm 27.4 18.2 -1.3 15 13.7 SW 37 52 20 28 1014.2 - 0.0
19/01:40pm 27.3 20.7 -0.6 16 13.5 WSW 24 33 13 18 1014.4 - 0.0
19/01:30pm 27.0 18.8 -0.8 16 13.4 WSW 32 41 17 22 1014.5 - 0.0
19/01:20pm 27.3 18.5 -1.1 15 13.6 SW 35 48 19 26 1014.8 - 0.0
19/01:10pm 27.5 19.6 -1.5 15 13.8 SW 30 37 16 20 1014.7 - 0.0
19/01:00pm 27.1 18.5 -2.2 14 13.8 SW 33 41 18 22 1014.5 - 0.0
19/12:50pm 27.2 19.2 -2.0 14 13.8 SW 30 39 16 21 1014.9 - 0.0
19/12:40pm 27.3 18.9 -2.3 14 13.9 SW 32 39 17 21 1014.9 - 0.0
19/12:30pm 27.8 21.9 -0.5 16 13.8 WSW 20 26 11 14 1015.1 - 0.0
19/12:20pm 27.4 20.7 -1.1 15 13.7 W 24 37 13 20 1014.9 - 0.0
19/12:10pm 26.9 19.4 -1.3 15 13.4 SW 28 39 15 21 1015.0 - 0.0
19/12:00pm 27.5 21.2 -0.9 15 13.7 W 22 33 12 18 1015.2 - 0.0
19/11:50am 26.6 20.5 0.7 18 12.8 W 22 32 12 17 1015.2 - 0.0
19/11:40am 26.3 20.0 -1.0 16 13.0 SW 22 30 12 16 1015.4 - 0.0
19/11:30am 25.9 18.8 -1.1 17 12.8 SW 26 33 14 18 1015.4 - 0.0
19/11:20am 25.7 19.4 -0.7 17 12.6 SW 22 33 12 18 1015.5 - 0.0
19/11:10am 25.5 18.4 -0.9 17 12.5 SW 26 35 14 19 1015.6 - 0.0
19/11:00am 25.0 18.5 0.0 19 12.0 SW 24 33 13 18 1015.5 - 0.0
19/10:50am 24.7 18.2 0.4 20 11.8 SW 24 32 13 17 1015.7 - 0.0
19/10:40am 24.4 17.1 -0.2 19 11.7 SW 28 35 15 19 1015.6 - 0.0
19/10:30am 24.1 16.4 -0.2 20 11.6 SW 30 37 16 20 1015.6 - 0.0
19/10:20am 24.0 18.3 -0.4 20 11.6 W 19 24 10 13 1015.9 - 0.0
19/10:10am 23.9 17.7 0.0 20 11.4 SW 22 32 12 17 1015.9 - 0.0
19/10:00am 24.0 18.4 -0.3 20 11.5 SW 19 33 10 18 1015.8 - 0.0
19/09:50am 23.5 18.3 0.3 21 11.1 SW 17 20 9 11 1015.8 - 0.0
19/09:40am 23.6 18.8 0.0 21 11.2 SW 15 19 8 10 1015.8 - 0.0
19/09:30am 23.3 18.6 1.1 23 10.8 W 15 20 8 11 1016.1 - 0.0
19/09:20am 23.2 18.9 0.8 23 10.8 WNW 13 22 7 12 1016.1 - 0.0
19/09:10am 23.2 19.1 -0.3 21 11.1 NW 11 17 6 9 1016.2 - 0.0
19/09:00am 22.2 16.9 -0.9 21 10.7 WNW 17 20 9 11 1016.3 - 0.0
19/08:50am 22.0 17.1 -0.5 22 10.5 WNW 15 22 8 12 1016.4 - 0.0
19/08:40am 21.6 15.9 -0.7 22 10.3 WNW 19 26 10 14 1016.4 - 0.0
19/08:30am 21.5 15.8 -0.7 22 10.3 NW 19 24 10 13 1016.3 - 0.0
19/08:20am 21.5 16.2 -0.4 23 10.2 NW 17 22 9 12 1016.3 - 0.0
19/08:10am 21.3 17.2 -0.1 24 10.0 W 11 17 6 9 1016.3 - 0.0
19/08:00am 21.2 18.2 0.5 25 9.8 WSW 6 9 3 5 1016.3 - 0.0
19/07:50am 20.5 16.7 -0.9 23 9.8 SW 9 15 5 8 1016.1 - 0.0
19/07:40am 20.1 16.4 -0.3 25 9.4 SW 9 15 5 8 1016.0 - 0.0
19/07:30am 19.6 15.5 -0.2 26 9.1 SSW 11 15 6 8 1016.0 - 0.0
19/07:20am 19.2 13.9 -0.6 26 9.0 SW 17 22 9 12 1015.9 - 0.0
19/07:10am 18.8 13.5 -0.8 26 8.9 SSW 17 20 9 11 1016.0 - 0.0
19/07:00am 18.3 12.6 -0.6 28 8.5 SW 19 22 10 12 1015.9 - 0.0
19/06:50am 17.8 11.9 -0.8 28 8.3 SW 20 24 11 13 1015.7 - 0.0
19/06:40am 17.5 10.9 -0.7 29 8.2 SW 24 28 13 15 1015.6 - 0.0
19/06:30am 17.5 10.1 -0.8 29 8.2 SW 28 33 15 18 1015.4 - 0.0
19/06:20am 17.4 9.6 -0.5 29 8.0 SW 30 32 16 17 1015.4 - 0.0
19/06:10am 17.4 9.3 -0.1 30 7.9 SW 32 37 17 20 1015.3 - 0.0
19/06:00am 17.4 9.3 -0.5 29 8.0 SW 32 39 17 21 1015.2 - 0.0
19/05:50am 17.2 9.5 0.0 31 7.8 SW 30 33 16 18 1015.2 - 0.0
19/05:40am 17.3 9.2 -0.3 30 7.9 SW 32 35 17 19 1015.0 - 0.0
19/05:30am 17.1 9.4 -0.2 31 7.8 SW 30 35 16 19 1014.9 - 0.0
19/05:20am 16.8 9.8 -0.2 31 7.6 SW 26 30 14 16 1015.0 - 0.0
19/05:10am 16.5 10.7 -0.1 32 7.5 WSW 20 28 11 15 1014.8 - 0.0
19/05:00am 16.2 11.7 -0.1 33 7.3 WSW 13 20 7 11 1014.9 - 0.0
19/04:50am 16.1 13.0 0.1 33 7.2 NNW 6 13 3 7 1015.1 - 0.0
19/04:40am 16.0 12.9 -0.1 33 7.2 N 6 7 3 4 1015.1 - 0.0
19/04:30am 16.0 13.3 0.1 34 7.1 SW 4 9 2 5 1015.1 - 0.0
19/04:20am 16.3 13.9 0.0 33 7.3 SE 2 6 1 3 1015.1 - 0.0
19/04:10am 16.4 14.0 0.0 33 7.4 NW 2 4 1 2 1015.1 - 0.0
19/04:00am 16.4 13.6 -0.1 32 7.4 SSE 4 6 2 3 1015.2 - 0.0
19/03:50am 16.5 14.1 -0.1 32 7.5 - 2 4 1 2 1015.2 - 0.0
19/03:40am 16.7 13.5 -0.2 31 7.6 WNW 6 7 3 4 1015.3 - 0.0
19/03:30am 16.7 13.5 -0.3 31 7.6 W 6 11 3 6 1015.4 - 0.0
19/03:20am 16.5 13.8 0.0 32 7.4 S 4 7 2 4 1015.4 - 0.0
19/03:10am 16.5 13.7 -0.2 32 7.5 SW 4 7 2 4 1015.5 - 0.0
19/03:00am 16.6 13.5 0.0 32 7.5 SW 6 11 3 6 1015.6 - 0.0
19/02:50am 16.7 13.0 -0.3 31 7.6 SW 9 17 5 9 1015.6 - 0.0
19/02:40am 16.4 12.7 -0.1 32 7.4 SW 9 13 5 7 1015.6 - 0.0
19/02:30am 16.4 12.7 0.0 33 7.4 SW 9 11 5 6 1015.8 - 0.0
19/02:20am 16.6 12.9 0.0 32 7.5 SW 9 13 5 7 1015.9 - 0.0
19/02:10am 16.7 13.0 0.0 32 7.5 SW 9 13 5 7 1015.9 - 0.0
19/02:00am 16.9 12.9 0.3 32 7.5 WSW 11 13 6 7 1015.9 - 0.0
19/01:50am 17.2 13.5 -0.1 31 7.8 W 9 13 5 7 1016.1 - 0.0
19/01:40am 16.8 14.0 -0.4 31 7.7 WSW 4 13 2 7 1016.1 - 0.0
19/01:30am 16.6 14.2 0.0 32 7.5 SE 2 6 1 3 1016.2 - 0.0
19/01:20am 16.7 13.6 0.0 32 7.5 S 6 11 3 6 1016.3 - 0.0
19/01:10am 16.8 13.1 0.0 32 7.6 S 9 13 5 7 1016.3 - 0.0
19/01:00am 17.1 13.4 0.2 32 7.7 S 9 13 5 7 1016.4 - 0.0
19/12:50am 17.3 12.8 0.0 31 7.8 SSE 13 17 7 9 1016.6 - 0.0
19/12:40am 17.3 12.9 0.1 31 7.8 SSE 13 17 7 9 1016.7 - 0.0
19/12:30am 17.5 13.1 0.1 31 7.9 SSE 13 17 7 9 1016.9 - 0.0
19/12:20am 17.5 12.7 -0.1 30 8.0 S 15 17 8 9 1017.0 - 0.0
19/12:10am 17.4 12.9 0.0 31 7.9 S 13 19 7 10 1017.0 - 0.0
19/12:00am 17.5 12.7 0.0 30 7.9 S 15 20 8 11 1017.1 - 0.0
 
Date/Time
EDT
Temp
°C
App
Temp
°C
Dew
Point
°C
Rel
Hum
%
Delta-T
°C
Wind Press
QNH
hPa
Press
MSL
hPa
Rain since
9am
mm
Dir  Spd
km/h
Gust
km/h
Spd
kts
Gust
kts
18/11:50pm 17.5 13.1 0.3 31 7.9 S 13 17 7 9 1017.2 - 0.0
18/11:40pm 17.6 12.4 0.1 30 8.0 S 17 19 9 10 1017.4 - 0.0
18/11:30pm 17.5 12.3 0.1 31 7.9 S 17 20 9 11 1017.4 - 0.0
18/11:20pm 17.6 12.4 0.1 30 8.0 S 17 22 9 12 1017.5 - 0.0
18/11:10pm 17.7 12.5 0.1 30 8.0 S 17 20 9 11 1017.4 - 0.0
18/11:00pm 17.8 13.0 0.1 30 8.1 SSW 15 20 8 11 1017.5 - 0.0
18/10:50pm 17.9 12.3 -0.1 29 8.2 SSW 19 24 10 13 1017.5 - 0.0
18/10:40pm 17.6 12.8 0.2 31 7.9 SSW 15 22 8 12 1017.5 - 0.0
18/10:30pm 17.7 12.1 -0.1 30 8.1 SSW 19 28 10 15 1017.4 - 0.0
18/10:20pm 17.6 12.4 -0.2 30 8.1 SW 17 24 9 13 1017.5 - 0.0
18/10:10pm 17.6 12.8 0.2 31 7.9 SSW 15 19 8 10 1017.5 - 0.0
18/10:00pm 17.7 14.0 0.2 30 8.0 S 9 15 5 8 1017.7 - 0.0
18/09:50pm 17.8 13.4 0.3 30 8.0 SSW 13 15 7 8 1017.5 - 0.0
18/09:40pm 17.9 13.9 0.5 31 8.0 SSW 11 17 6 9 1017.4 - 0.0
18/09:30pm 17.9 13.1 0.3 30 8.1 SSW 15 19 8 10 1017.2 - 0.0
18/09:20pm 17.8 14.1 0.1 30 8.1 SSW 9 19 5 10 1017.2 - 0.0
18/09:10pm 17.8 14.5 0.3 30 8.0 SSW 7 9 4 5 1017.0 - 0.0
18/09:00pm 18.0 14.4 0.5 30 8.1 S 9 15 5 8 1017.0 - 0.0
18/08:50pm 18.4 13.2 0.3 29 8.3 SSW 17 26 9 14 1016.9 - 0.0
18/08:40pm 18.4 14.0 0.5 30 8.3 SSW 13 20 7 11 1016.8 - 0.0
18/08:30pm 18.4 14.3 0.1 29 8.4 SSW 11 17 6 9 1016.8 - 0.0
18/08:20pm 18.6 13.8 -0.1 28 8.6 SSW 15 19 8 10 1016.8 - 0.0
18/08:10pm 18.2 14.2 0.3 30 8.2 SSW 11 17 6 9 1016.8 - 0.0
18/08:00pm 18.6 14.6 0.7 30 8.3 WSW 11 22 6 12 1016.7 - 0.0
18/07:50pm 19.0 15.4 0.5 29 8.6 WSW 9 19 5 10 1016.6 - 0.0
18/07:40pm 19.4 15.8 0.6 28 8.8 WSW 9 15 5 8 1016.6 - 0.0
18/07:30pm 20.1 16.1 0.6 27 9.2 W 11 19 6 10 1016.5 - 0.0
18/07:20pm 21.4 17.1 0.9 25 9.8 WSW 13 22 7 12 1016.5 - 0.0
18/07:10pm 21.8 17.5 0.8 25 10.0 WSW 13 20 7 11 1016.4 - 0.0
18/07:00pm 22.2 16.7 0.3 23 10.4 WSW 19 24 10 13 1016.4 - 0.0
18/06:50pm 22.7 17.9 0.4 23 10.6 WSW 15 20 8 11 1016.2 - 0.0
18/06:40pm 22.9 18.2 0.8 23 10.6 WSW 15 20 8 11 1016.1 - 0.0
18/06:30pm 23.1 17.9 0.4 22 10.9 WSW 17 22 9 12 1016.0 - 0.0
18/06:20pm 23.9 19.1 0.3 21 11.3 SW 15 22 8 12 1015.9 - 0.0
18/06:10pm 23.9 18.8 0.5 21 11.3 WSW 17 20 9 11 1015.8 - 0.0
18/06:00pm 24.1 19.7 0.4 21 11.4 WSW 13 17 7 9 1015.7 - 0.0
18/05:50pm 24.5 20.0 0.0 20 11.8 WSW 13 20 7 11 1015.7 - 0.0
18/05:40pm 24.5 20.1 0.1 20 11.7 WSW 13 20 7 11 1015.7 - 0.0
18/05:30pm 24.6 19.4 0.3 20 11.7 WSW 17 24 9 13 1015.7 - 0.0
18/05:20pm 25.2 20.9 1.1 20 11.9 WSW 13 20 7 11 1015.6 - 0.0
18/05:10pm 25.0 19.8 0.1 19 12.0 WSW 17 24 9 13 1015.6 - 0.0
18/05:00pm 24.9 19.4 0.4 20 11.9 WSW 19 24 10 13 1015.8 - 0.0
18/04:50pm 25.4 20.2 0.0 19 12.3 WSW 17 24 9 13 1015.8 - 0.0
18/04:40pm 25.2 19.6 0.0 19 12.1 WSW 19 24 10 13 1015.8 - 0.0
18/04:30pm 25.3 20.2 0.9 20 12.0 W 17 22 9 12 1015.8 - 0.0
18/04:20pm 25.3 20.5 0.4 19 12.1 WSW 15 22 8 12 1015.8 - 0.0
18/04:10pm 25.3 20.0 1.8 21 11.7 WSW 19 28 10 15 1015.8 - 0.0
18/04:00pm 25.3 20.2 1.0 20 11.9 WSW 17 28 9 15 1015.7 - 0.0
18/03:50pm 25.1 20.0 0.9 20 11.8 WSW 17 22 9 12 1015.9 - 0.0
18/03:40pm 25.3 20.1 0.2 19 12.2 WSW 17 26 9 14 1015.7 - 0.0
18/03:30pm 24.7 19.5 0.4 20 11.8 W 17 24 9 13 1015.9 - 0.0
18/03:20pm 24.8 19.7 0.9 21 11.7 W 17 26 9 14 1016.0 - 0.0
18/03:10pm 24.9 19.4 0.4 20 11.9 WSW 19 26 10 14 1016.2 - 0.0
18/03:00pm 24.6 19.2 1.2 21 11.5 W 19 26 10 14 1016.1 - 0.0
18/02:50pm 24.5 18.9 1.0 21 11.5 WSW 20 26 11 14 1016.3 - 0.0
18/02:40pm 24.6 19.2 1.4 22 11.4 WSW 19 26 10 14 1016.5 - 0.0
18/02:30pm 23.8 17.9 1.5 23 10.9 WSW 22 33 12 18 1016.5 - 0.0
18/02:20pm 24.1 18.3 2.2 24 10.9 WSW 22 28 12 15 1016.6 - 0.0
18/02:10pm 24.5 19.2 2.0 23 11.2 W 19 26 10 14 1016.7 - 0.0
18/02:00pm 23.9 18.6 2.0 24 10.9 WSW 19 28 10 15 1016.7 - 0.0
18/01:50pm 23.8 18.3 1.8 23 10.9 W 20 26 11 14 1016.9 - 0.0
18/01:40pm 23.9 18.5 1.3 22 11.1 WSW 19 24 10 13 1017.1 - 0.0
18/01:30pm 24.1 19.4 1.2 22 11.2 W 15 24 8 13 1017.2 - 0.0
18/01:20pm 23.6 18.0 1.4 23 10.9 WSW 20 28 11 15 1017.3 - 0.0
18/01:10pm 23.5 18.0 0.3 21 11.1 W 19 26 10 14 1017.4 - 0.0
18/01:00pm 23.8 18.8 1.2 22 11.0 W 17 20 9 11 1017.5 - 0.0
18/12:50pm 23.6 18.4 0.4 21 11.1 W 17 24 9 13 1017.5 - 0.0
18/12:40pm 23.7 19.2 -0.2 20 11.4 WSW 13 19 7 10 1017.5 - 0.0
18/12:30pm 23.8 18.7 -1.6 18 11.8 W 15 20 8 11 1017.6 - 0.0
18/12:20pm 24.1 19.5 -1.1 19 11.8 WSW 13 22 7 12 1017.7 - 0.0
18/12:10pm 23.3 18.4 -0.5 20 11.2 WSW 15 24 8 13 1018.1 - 0.0
18/12:00pm 23.1 18.8 -1.4 19 11.3 W 11 20 6 11 1018.2 - 0.0
18/11:50am 22.9 18.6 -1.5 19 11.2 WSW 11 17 6 9 1018.4 - 0.0
18/11:40am 22.2 17.9 -1.5 20 10.9 W 11 15 6 8 1018.5 - 0.0
18/11:30am 22.9 18.9 -2.3 18 11.4 WSW 9 17 5 9 1018.5 - 0.0
18/11:20am 22.0 17.7 -1.4 21 10.7 W 11 15 6 8 1018.6 - 0.0
18/11:10am 21.5 16.9 -1.3 21 10.4 WSW 13 15 7 8 1018.8 - 0.0

Other formats

Comma delimited format used in spreadsheet applications
http://www.bom.gov.au/fwo/IDN60801/IDN60801.99762.axf

JavaScript Object Notation format (JSON) in row-major order
http://www.bom.gov.au/fwo/IDN60801/IDN60801.99762.json

Data quality

Most of these data are generated automatically and are frequently updated. Quality checks on data are not normally performed. It is possible for incorrect values to appear. Refer to information at About Latest Weather Observations and please check the disclaimer before using these data.